sensor_id;sensor_type;location;lat;lon;timestamp;P1;durP1;ratioP1;P2;durP2;ratioP2
5199;SDS011;2619;47.868;11.892;2023-02-04T00:01:20;2.83;;;1.00;;
5199;SDS011;2619;47.868;11.892;2023-02-04T00:03:46;2.30;;;1.00;;
5199;SDS011;2619;47.868;11.892;2023-02-04T00:06:12;2.00;;;1.10;;
5199;SDS011;2619;47.868;11.892;2023-02-04T00:08:37;5.40;;;1.30;;
5199;SDS011;2619;47.868;11.892;2023-02-04T00:11:03;1.90;;;0.80;;
5199;SDS011;2619;47.868;11.892;2023-02-04T00:13:29;2.77;;;1.50;;
5199;SDS011;2619;47.868;11.892;2023-02-04T00:15:54;1.93;;;0.93;;
5199;SDS011;2619;47.868;11.892;2023-02-04T00:18:20;1.97;;;0.80;;
5199;SDS011;2619;47.868;11.892;2023-02-04T00:20:45;2.07;;;1.07;;
5199;SDS011;2619;47.868;11.892;2023-02-04T00:23:11;2.00;;;0.97;;
5199;SDS011;2619;47.868;11.892;2023-02-04T00:25:37;1.93;;;0.83;;
5199;SDS011;2619;47.868;11.892;2023-02-04T00:28:02;2.07;;;0.90;;
5199;SDS011;2619;47.868;11.892;2023-02-04T00:30:28;1.60;;;0.80;;
5199;SDS011;2619;47.868;11.892;2023-02-04T00:32:54;2.23;;;0.80;;
5199;SDS011;2619;47.868;11.892;2023-02-04T00:35:21;2.53;;;0.80;;
5199;SDS011;2619;47.868;11.892;2023-02-04T00:37:47;2.17;;;0.73;;
5199;SDS011;2619;47.868;11.892;2023-02-04T00:40:13;2.10;;;0.70;;
5199;SDS011;2619;47.868;11.892;2023-02-04T00:42:39;2.00;;;1.10;;
5199;SDS011;2619;47.868;11.892;2023-02-04T00:45:04;1.80;;;0.80;;
5199;SDS011;2619;47.868;11.892;2023-02-04T00:47:30;1.90;;;0.80;;
5199;SDS011;2619;47.868;11.892;2023-02-04T00:49:56;1.90;;;0.77;;
5199;SDS011;2619;47.868;11.892;2023-02-04T00:52:21;2.00;;;0.80;;
5199;SDS011;2619;47.868;11.892;2023-02-04T00:54:47;1.70;;;0.77;;
5199;SDS011;2619;47.868;11.892;2023-02-04T00:57:13;2.60;;;0.90;;
5199;SDS011;2619;47.868;11.892;2023-02-04T00:59:38;2.20;;;1.10;;
5199;SDS011;2619;47.868;11.892;2023-02-04T01:02:04;1.60;;;0.60;;
5199;SDS011;2619;47.868;11.892;2023-02-04T01:04:29;1.60;;;0.60;;
5199;SDS011;2619;47.868;11.892;2023-02-04T01:06:56;1.80;;;0.70;;
5199;SDS011;2619;47.868;11.892;2023-02-04T01:09:22;1.70;;;0.77;;
5199;SDS011;2619;47.868;11.892;2023-02-04T01:11:48;1.60;;;0.57;;
5199;SDS011;2619;47.868;11.892;2023-02-04T01:14:13;1.57;;;0.60;;
5199;SDS011;2619;47.868;11.892;2023-02-04T01:16:39;1.40;;;0.50;;
5199;SDS011;2619;47.868;11.892;2023-02-04T01:19:05;1.90;;;0.50;;
5199;SDS011;2619;47.868;11.892;2023-02-04T01:21:30;1.60;;;0.50;;
5199;SDS011;2619;47.868;11.892;2023-02-04T01:23:56;1.50;;;0.43;;
5199;SDS011;2619;47.868;11.892;2023-02-04T01:26:21;1.40;;;0.50;;
5199;SDS011;2619;47.868;11.892;2023-02-04T01:28:47;1.70;;;0.63;;
5199;SDS011;2619;47.868;11.892;2023-02-04T01:31:13;1.63;;;0.70;;
5199;SDS011;2619;47.868;11.892;2023-02-04T01:33:39;1.70;;;0.73;;
5199;SDS011;2619;47.868;11.892;2023-02-04T01:36:04;1.50;;;0.60;;
5199;SDS011;2619;47.868;11.892;2023-02-04T01:38:30;1.70;;;0.70;;
5199;SDS011;2619;47.868;11.892;2023-02-04T01:40:56;1.50;;;0.50;;
5199;SDS011;2619;47.868;11.892;2023-02-04T01:43:22;1.60;;;0.60;;
5199;SDS011;2619;47.868;11.892;2023-02-04T01:45:48;1.97;;;0.57;;
5199;SDS011;2619;47.868;11.892;2023-02-04T01:48:15;1.60;;;0.60;;
5199;SDS011;2619;47.868;11.892;2023-02-04T01:50:51;1.50;;;0.50;;
5199;SDS011;2619;47.868;11.892;2023-02-04T01:53:26;2.07;;;0.60;;
5199;SDS011;2619;47.868;11.892;2023-02-04T01:55:51;1.43;;;0.50;;
5199;SDS011;2619;47.868;11.892;2023-02-04T01:58:17;1.87;;;0.70;;
5199;SDS011;2619;47.868;11.892;2023-02-04T02:00:43;1.50;;;0.53;;
5199;SDS011;2619;47.868;11.892;2023-02-04T02:03:09;1.50;;;0.50;;
5199;SDS011;2619;47.868;11.892;2023-02-04T02:08:02;1.80;;;0.67;;
5199;SDS011;2619;47.868;11.892;2023-02-04T02:10:30;1.50;;;0.50;;
5199;SDS011;2619;47.868;11.892;2023-02-04T02:12:56;1.30;;;0.40;;
5199;SDS011;2619;47.868;11.892;2023-02-04T02:15:22;1.90;;;0.50;;
5199;SDS011;2619;47.868;11.892;2023-02-04T02:17:48;1.40;;;0.50;;
5199;SDS011;2619;47.868;11.892;2023-02-04T02:25:46;1.60;;;0.57;;
5199;SDS011;2619;47.868;11.892;2023-02-04T02:28:14;1.60;;;0.50;;
5199;SDS011;2619;47.868;11.892;2023-02-04T02:30:41;1.30;;;0.43;;
5199;SDS011;2619;47.868;11.892;2023-02-04T02:33:09;1.47;;;0.63;;
5199;SDS011;2619;47.868;11.892;2023-02-04T02:35:41;1.83;;;0.70;;
5199;SDS011;2619;47.868;11.892;2023-02-04T02:38:08;2.97;;;1.00;;
5199;SDS011;2619;47.868;11.892;2023-02-04T02:40:34;1.60;;;0.70;;
5199;SDS011;2619;47.868;11.892;2023-02-04T02:43:00;3.20;;;1.67;;
5199;SDS011;2619;47.868;11.892;2023-02-04T02:45:27;2.90;;;1.20;;
5199;SDS011;2619;47.868;11.892;2023-02-04T02:47:55;4.20;;;1.40;;
5199;SDS011;2619;47.868;11.892;2023-02-04T02:50:23;3.47;;;1.20;;
5199;SDS011;2619;47.868;11.892;2023-02-04T02:52:51;5.40;;;1.03;;
5199;SDS011;2619;47.868;11.892;2023-02-04T02:55:18;2.80;;;1.30;;
5199;SDS011;2619;47.868;11.892;2023-02-04T02:57:46;6.93;;;1.00;;
5199;SDS011;2619;47.868;11.892;2023-02-04T03:00:17;3.13;;;0.90;;
5199;SDS011;2619;47.868;11.892;2023-02-04T03:02:44;2.50;;;1.03;;
5199;SDS011;2619;47.868;11.892;2023-02-04T03:05:13;2.17;;;0.90;;
5199;SDS011;2619;47.868;11.892;2023-02-04T03:07:39;5.43;;;1.03;;
5199;SDS011;2619;47.868;11.892;2023-02-04T03:10:05;2.73;;;0.80;;
5199;SDS011;2619;47.868;11.892;2023-02-04T03:12:31;3.43;;;1.13;;
5199;SDS011;2619;47.868;11.892;2023-02-04T03:14:56;1.60;;;0.63;;
5199;SDS011;2619;47.868;11.892;2023-02-04T03:17:22;2.10;;;0.70;;
5199;SDS011;2619;47.868;11.892;2023-02-04T03:19:48;2.47;;;0.70;;
5199;SDS011;2619;47.868;11.892;2023-02-04T03:22:13;2.43;;;1.00;;
5199;SDS011;2619;47.868;11.892;2023-02-04T03:24:39;2.90;;;1.03;;
5199;SDS011;2619;47.868;11.892;2023-02-04T03:27:05;2.67;;;0.80;;
5199;SDS011;2619;47.868;11.892;2023-02-04T03:29:31;2.70;;;0.83;;
5199;SDS011;2619;47.868;11.892;2023-02-04T03:31:57;1.90;;;0.70;;
5199;SDS011;2619;47.868;11.892;2023-02-04T03:34:23;2.20;;;0.70;;
5199;SDS011;2619;47.868;11.892;2023-02-04T03:36:49;1.60;;;0.57;;
5199;SDS011;2619;47.868;11.892;2023-02-04T03:39:15;3.73;;;0.60;;
5199;SDS011;2619;47.868;11.892;2023-02-04T03:41:41;1.67;;;0.53;;
5199;SDS011;2619;47.868;11.892;2023-02-04T03:44:07;1.50;;;0.40;;
5199;SDS011;2619;47.868;11.892;2023-02-04T03:46:32;1.87;;;0.57;;
5199;SDS011;2619;47.868;11.892;2023-02-04T03:48:58;3.10;;;0.73;;
5199;SDS011;2619;47.868;11.892;2023-02-04T03:51:23;1.80;;;0.97;;
5199;SDS011;2619;47.868;11.892;2023-02-04T03:53:49;2.37;;;0.83;;
5199;SDS011;2619;47.868;11.892;2023-02-04T03:56:15;1.90;;;0.70;;
5199;SDS011;2619;47.868;11.892;2023-02-04T03:58:40;2.73;;;0.60;;
5199;SDS011;2619;47.868;11.892;2023-02-04T04:01:06;1.67;;;0.57;;
5199;SDS011;2619;47.868;11.892;2023-02-04T04:03:31;1.80;;;0.60;;
5199;SDS011;2619;47.868;11.892;2023-02-04T04:05:57;1.40;;;0.40;;
5199;SDS011;2619;47.868;11.892;2023-02-04T04:08:22;2.17;;;0.40;;
5199;SDS011;2619;47.868;11.892;2023-02-04T04:10:49;1.60;;;0.50;;
5199;SDS011;2619;47.868;11.892;2023-02-04T04:13:15;2.40;;;0.53;;
5199;SDS011;2619;47.868;11.892;2023-02-04T04:15:40;1.57;;;0.53;;
5199;SDS011;2619;47.868;11.892;2023-02-04T04:18:06;1.50;;;0.50;;
5199;SDS011;2619;47.868;11.892;2023-02-04T04:20:31;2.10;;;0.67;;
5199;SDS011;2619;47.868;11.892;2023-02-04T04:22:57;2.07;;;0.60;;
5199;SDS011;2619;47.868;11.892;2023-02-04T04:25:22;1.40;;;0.40;;
5199;SDS011;2619;47.868;11.892;2023-02-04T04:27:48;3.77;;;0.63;;
5199;SDS011;2619;47.868;11.892;2023-02-04T04:30:14;3.07;;;0.97;;
5199;SDS011;2619;47.868;11.892;2023-02-04T04:32:39;1.83;;;0.70;;
5199;SDS011;2619;47.868;11.892;2023-02-04T04:35:05;1.80;;;0.60;;
5199;SDS011;2619;47.868;11.892;2023-02-04T04:37:31;2.23;;;0.60;;
5199;SDS011;2619;47.868;11.892;2023-02-04T04:39:58;2.40;;;0.93;;
5199;SDS011;2619;47.868;11.892;2023-02-04T04:42:25;1.80;;;0.70;;
5199;SDS011;2619;47.868;11.892;2023-02-04T04:44:51;3.20;;;1.10;;
5199;SDS011;2619;47.868;11.892;2023-02-04T04:47:16;2.57;;;0.50;;
5199;SDS011;2619;47.868;11.892;2023-02-04T04:49:42;3.13;;;1.10;;
5199;SDS011;2619;47.868;11.892;2023-02-04T04:52:07;2.50;;;1.50;;
5199;SDS011;2619;47.868;11.892;2023-02-04T04:54:34;4.20;;;1.67;;
5199;SDS011;2619;47.868;11.892;2023-02-04T04:57:00;3.80;;;1.30;;
5199;SDS011;2619;47.868;11.892;2023-02-04T04:59:25;2.70;;;1.00;;
5199;SDS011;2619;47.868;11.892;2023-02-04T05:01:51;4.53;;;1.50;;
5199;SDS011;2619;47.868;11.892;2023-02-04T05:04:16;2.93;;;1.17;;
5199;SDS011;2619;47.868;11.892;2023-02-04T05:06:42;2.80;;;1.27;;
5199;SDS011;2619;47.868;11.892;2023-02-04T05:09:07;3.17;;;1.23;;
5199;SDS011;2619;47.868;11.892;2023-02-04T05:11:33;7.73;;;1.47;;
5199;SDS011;2619;47.868;11.892;2023-02-04T05:13:59;3.30;;;1.20;;
5199;SDS011;2619;47.868;11.892;2023-02-04T05:16:25;2.47;;;1.50;;
5199;SDS011;2619;47.868;11.892;2023-02-04T05:18:50;4.90;;;1.53;;
5199;SDS011;2619;47.868;11.892;2023-02-04T05:21:16;3.43;;;1.70;;
5199;SDS011;2619;47.868;11.892;2023-02-04T05:23:41;4.20;;;1.77;;
5199;SDS011;2619;47.868;11.892;2023-02-04T05:26:07;8.53;;;2.10;;
5199;SDS011;2619;47.868;11.892;2023-02-04T05:28:32;3.50;;;1.13;;
5199;SDS011;2619;47.868;11.892;2023-02-04T05:30:58;5.80;;;1.90;;
5199;SDS011;2619;47.868;11.892;2023-02-04T05:33:23;4.60;;;1.90;;
5199;SDS011;2619;47.868;11.892;2023-02-04T05:35:49;3.83;;;1.80;;
5199;SDS011;2619;47.868;11.892;2023-02-04T05:38:15;2.80;;;1.80;;
5199;SDS011;2619;47.868;11.892;2023-02-04T05:40:40;3.10;;;1.20;;
5199;SDS011;2619;47.868;11.892;2023-02-04T05:43:06;6.23;;;2.37;;
5199;SDS011;2619;47.868;11.892;2023-02-04T05:45:31;6.77;;;2.10;;
5199;SDS011;2619;47.868;11.892;2023-02-04T05:47:57;6.07;;;2.00;;
5199;SDS011;2619;47.868;11.892;2023-02-04T05:50:22;8.87;;;2.00;;
5199;SDS011;2619;47.868;11.892;2023-02-04T05:52:48;7.63;;;2.33;;
5199;SDS011;2619;47.868;11.892;2023-02-04T05:55:14;8.07;;;1.97;;
5199;SDS011;2619;47.868;11.892;2023-02-04T05:57:40;7.50;;;1.70;;
5199;SDS011;2619;47.868;11.892;2023-02-04T06:00:06;5.60;;;2.47;;
5199;SDS011;2619;47.868;11.892;2023-02-04T06:02:32;4.73;;;2.43;;
5199;SDS011;2619;47.868;11.892;2023-02-04T06:04:57;5.43;;;1.70;;
5199;SDS011;2619;47.868;11.892;2023-02-04T06:07:23;4.27;;;2.30;;
5199;SDS011;2619;47.868;11.892;2023-02-04T06:09:48;4.07;;;1.50;;
5199;SDS011;2619;47.868;11.892;2023-02-04T06:12:14;5.60;;;1.80;;
5199;SDS011;2619;47.868;11.892;2023-02-04T06:14:39;5.10;;;1.57;;
5199;SDS011;2619;47.868;11.892;2023-02-04T06:17:05;8.53;;;2.53;;
5199;SDS011;2619;47.868;11.892;2023-02-04T06:19:30;7.03;;;3.50;;
5199;SDS011;2619;47.868;11.892;2023-02-04T06:21:56;6.87;;;2.17;;
5199;SDS011;2619;47.868;11.892;2023-02-04T06:24:21;9.83;;;2.13;;
5199;SDS011;2619;47.868;11.892;2023-02-04T06:26:47;5.67;;;1.80;;
5199;SDS011;2619;47.868;11.892;2023-02-04T06:29:12;6.57;;;1.83;;
5199;SDS011;2619;47.868;11.892;2023-02-04T06:31:38;9.67;;;3.00;;
5199;SDS011;2619;47.868;11.892;2023-02-04T06:34:04;5.80;;;2.03;;
5199;SDS011;2619;47.868;11.892;2023-02-04T06:36:29;7.03;;;2.20;;
5199;SDS011;2619;47.868;11.892;2023-02-04T06:38:55;10.90;;;3.10;;
5199;SDS011;2619;47.868;11.892;2023-02-04T06:41:21;7.27;;;2.43;;
5199;SDS011;2619;47.868;11.892;2023-02-04T06:43:47;5.80;;;2.00;;
5199;SDS011;2619;47.868;11.892;2023-02-04T06:46:12;7.50;;;2.23;;
5199;SDS011;2619;47.868;11.892;2023-02-04T06:48:38;4.23;;;2.30;;
5199;SDS011;2619;47.868;11.892;2023-02-04T06:51:04;5.80;;;2.40;;
5199;SDS011;2619;47.868;11.892;2023-02-04T06:53:29;9.03;;;2.30;;
5199;SDS011;2619;47.868;11.892;2023-02-04T06:55:55;9.67;;;2.43;;
5199;SDS011;2619;47.868;11.892;2023-02-04T06:58:20;5.23;;;2.40;;
5199;SDS011;2619;47.868;11.892;2023-02-04T07:00:46;5.83;;;2.50;;
5199;SDS011;2619;47.868;11.892;2023-02-04T07:03:12;10.47;;;2.70;;
5199;SDS011;2619;47.868;11.892;2023-02-04T07:05:37;9.87;;;3.17;;
5199;SDS011;2619;47.868;11.892;2023-02-04T07:08:03;8.47;;;2.50;;
5199;SDS011;2619;47.868;11.892;2023-02-04T07:10:28;11.93;;;3.23;;
5199;SDS011;2619;47.868;11.892;2023-02-04T07:12:54;6.40;;;2.90;;
5199;SDS011;2619;47.868;11.892;2023-02-04T07:15:19;5.20;;;2.30;;
5199;SDS011;2619;47.868;11.892;2023-02-04T07:17:45;7.53;;;3.20;;
5199;SDS011;2619;47.868;11.892;2023-02-04T07:20:11;8.03;;;3.03;;
5199;SDS011;2619;47.868;11.892;2023-02-04T07:22:36;8.20;;;3.57;;
5199;SDS011;2619;47.868;11.892;2023-02-04T07:25:02;9.40;;;2.90;;
5199;SDS011;2619;47.868;11.892;2023-02-04T07:27:28;6.43;;;2.80;;
5199;SDS011;2619;47.868;11.892;2023-02-04T07:29:53;11.40;;;2.50;;
5199;SDS011;2619;47.868;11.892;2023-02-04T07:32:19;5.60;;;2.50;;
5199;SDS011;2619;47.868;11.892;2023-02-04T07:34:44;8.27;;;2.53;;
5199;SDS011;2619;47.868;11.892;2023-02-04T07:37:10;7.13;;;2.27;;
5199;SDS011;2619;47.868;11.892;2023-02-04T07:39:36;11.50;;;2.80;;
5199;SDS011;2619;47.868;11.892;2023-02-04T07:42:01;8.03;;;2.80;;
5199;SDS011;2619;47.868;11.892;2023-02-04T07:44:27;8.30;;;2.50;;
5199;SDS011;2619;47.868;11.892;2023-02-04T07:46:52;6.33;;;2.90;;
5199;SDS011;2619;47.868;11.892;2023-02-04T07:49:18;10.80;;;2.60;;
5199;SDS011;2619;47.868;11.892;2023-02-04T07:51:43;6.93;;;3.63;;
5199;SDS011;2619;47.868;11.892;2023-02-04T07:54:09;4.20;;;2.10;;
5199;SDS011;2619;47.868;11.892;2023-02-04T07:56:34;6.43;;;2.00;;
5199;SDS011;2619;47.868;11.892;2023-02-04T07:59:00;5.93;;;1.83;;
5199;SDS011;2619;47.868;11.892;2023-02-04T08:01:26;8.10;;;2.60;;
5199;SDS011;2619;47.868;11.892;2023-02-04T08:03:51;6.57;;;2.30;;
5199;SDS011;2619;47.868;11.892;2023-02-04T08:06:17;5.33;;;2.20;;
5199;SDS011;2619;47.868;11.892;2023-02-04T08:08:42;5.83;;;2.73;;
5199;SDS011;2619;47.868;11.892;2023-02-04T08:11:08;8.43;;;2.57;;
5199;SDS011;2619;47.868;11.892;2023-02-04T08:13:33;5.17;;;2.30;;
5199;SDS011;2619;47.868;11.892;2023-02-04T08:15:59;5.07;;;2.17;;
5199;SDS011;2619;47.868;11.892;2023-02-04T08:18:25;3.87;;;1.47;;
5199;SDS011;2619;47.868;11.892;2023-02-04T08:20:50;4.37;;;1.93;;
5199;SDS011;2619;47.868;11.892;2023-02-04T08:23:16;10.67;;;2.00;;
5199;SDS011;2619;47.868;11.892;2023-02-04T08:25:41;5.13;;;1.80;;
5199;SDS011;2619;47.868;11.892;2023-02-04T08:28:09;3.67;;;1.80;;
5199;SDS011;2619;47.868;11.892;2023-02-04T08:30:35;5.53;;;2.17;;
5199;SDS011;2619;47.868;11.892;2023-02-04T08:33:00;4.80;;;2.10;;
5199;SDS011;2619;47.868;11.892;2023-02-04T08:35:26;3.00;;;1.23;;
5199;SDS011;2619;47.868;11.892;2023-02-04T08:37:51;5.20;;;2.00;;
5199;SDS011;2619;47.868;11.892;2023-02-04T08:40:17;9.23;;;2.67;;
5199;SDS011;2619;47.868;11.892;2023-02-04T08:42:43;3.77;;;1.47;;
5199;SDS011;2619;47.868;11.892;2023-02-04T08:45:08;7.10;;;1.70;;
5199;SDS011;2619;47.868;11.892;2023-02-04T08:47:34;4.80;;;1.97;;
5199;SDS011;2619;47.868;11.892;2023-02-04T08:49:59;6.23;;;1.80;;
5199;SDS011;2619;47.868;11.892;2023-02-04T08:52:25;2.30;;;1.20;;
5199;SDS011;2619;47.868;11.892;2023-02-04T08:54:50;3.90;;;1.43;;
5199;SDS011;2619;47.868;11.892;2023-02-04T08:57:16;4.80;;;1.70;;
5199;SDS011;2619;47.868;11.892;2023-02-04T08:59:41;5.63;;;1.90;;
5199;SDS011;2619;47.868;11.892;2023-02-04T09:02:09;6.10;;;1.80;;
5199;SDS011;2619;47.868;11.892;2023-02-04T09:04:34;4.20;;;2.07;;
5199;SDS011;2619;47.868;11.892;2023-02-04T09:07:00;4.30;;;1.90;;
5199;SDS011;2619;47.868;11.892;2023-02-04T09:09:25;8.40;;;2.20;;
5199;SDS011;2619;47.868;11.892;2023-02-04T09:11:51;8.63;;;2.20;;
5199;SDS011;2619;47.868;11.892;2023-02-04T09:14:16;5.00;;;2.60;;
5199;SDS011;2619;47.868;11.892;2023-02-04T09:16:42;8.10;;;1.97;;
5199;SDS011;2619;47.868;11.892;2023-02-04T09:19:08;5.40;;;1.83;;
5199;SDS011;2619;47.868;11.892;2023-02-04T09:21:36;4.37;;;1.70;;
5199;SDS011;2619;47.868;11.892;2023-02-04T09:24:02;9.37;;;2.10;;
5199;SDS011;2619;47.868;11.892;2023-02-04T09:26:28;5.47;;;1.50;;
5199;SDS011;2619;47.868;11.892;2023-02-04T09:28:53;4.43;;;2.20;;
5199;SDS011;2619;47.868;11.892;2023-02-04T09:31:19;7.80;;;2.00;;
5199;SDS011;2619;47.868;11.892;2023-02-04T09:33:45;6.13;;;1.90;;
5199;SDS011;2619;47.868;11.892;2023-02-04T09:36:10;4.83;;;2.13;;
5199;SDS011;2619;47.868;11.892;2023-02-04T09:38:36;10.57;;;1.90;;
5199;SDS011;2619;47.868;11.892;2023-02-04T09:41:03;5.30;;;2.03;;
5199;SDS011;2619;47.868;11.892;2023-02-04T09:43:35;8.23;;;2.17;;
5199;SDS011;2619;47.868;11.892;2023-02-04T09:46:04;4.80;;;1.63;;
5199;SDS011;2619;47.868;11.892;2023-02-04T09:48:31;5.43;;;2.30;;
5199;SDS011;2619;47.868;11.892;2023-02-04T09:51:02;5.23;;;1.80;;
5199;SDS011;2619;47.868;11.892;2023-02-04T09:53:31;8.73;;;2.20;;
5199;SDS011;2619;47.868;11.892;2023-02-04T09:55:57;6.60;;;1.93;;
5199;SDS011;2619;47.868;11.892;2023-02-04T09:58:23;6.07;;;1.90;;
5199;SDS011;2619;47.868;11.892;2023-02-04T10:00:55;6.70;;;2.57;;
5199;SDS011;2619;47.868;11.892;2023-02-04T10:03:25;6.87;;;1.57;;
5199;SDS011;2619;47.868;11.892;2023-02-04T10:05:50;6.80;;;1.83;;
5199;SDS011;2619;47.868;11.892;2023-02-04T10:08:21;5.57;;;2.03;;
5199;SDS011;2619;47.868;11.892;2023-02-04T10:10:51;6.43;;;1.60;;
5199;SDS011;2619;47.868;11.892;2023-02-04T10:13:22;6.90;;;2.30;;
5199;SDS011;2619;47.868;11.892;2023-02-04T10:15:54;4.50;;;1.73;;
5199;SDS011;2619;47.868;11.892;2023-02-04T10:18:24;8.13;;;2.40;;
5199;SDS011;2619;47.868;11.892;2023-02-04T10:21:07;4.50;;;1.77;;
5199;SDS011;2619;47.868;11.892;2023-02-04T10:23:39;5.90;;;2.03;;
5199;SDS011;2619;47.868;11.892;2023-02-04T10:26:08;7.90;;;1.90;;
5199;SDS011;2619;47.868;11.892;2023-02-04T10:28:35;6.63;;;1.67;;
5199;SDS011;2619;47.868;11.892;2023-02-04T10:31:02;6.40;;;2.30;;
5199;SDS011;2619;47.868;11.892;2023-02-04T10:33:27;7.07;;;2.87;;
5199;SDS011;2619;47.868;11.892;2023-02-04T10:35:56;4.30;;;2.00;;
5199;SDS011;2619;47.868;11.892;2023-02-04T10:38:22;5.33;;;1.90;;
5199;SDS011;2619;47.868;11.892;2023-02-04T10:40:59;5.40;;;2.47;;
5199;SDS011;2619;47.868;11.892;2023-02-04T10:43:29;6.23;;;2.33;;
5199;SDS011;2619;47.868;11.892;2023-02-04T10:45:56;4.90;;;2.20;;
5199;SDS011;2619;47.868;11.892;2023-02-04T10:48:28;4.83;;;1.97;;
5199;SDS011;2619;47.868;11.892;2023-02-04T10:51:03;11.33;;;1.77;;
5199;SDS011;2619;47.868;11.892;2023-02-04T10:53:28;7.97;;;2.53;;
5199;SDS011;2619;47.868;11.892;2023-02-04T10:56:14;10.80;;;2.40;;
5199;SDS011;2619;47.868;11.892;2023-02-04T10:58:43;5.70;;;1.80;;
5199;SDS011;2619;47.868;11.892;2023-02-04T11:01:10;8.50;;;2.50;;
5199;SDS011;2619;47.868;11.892;2023-02-04T11:03:37;5.67;;;2.50;;
5199;SDS011;2619;47.868;11.892;2023-02-04T11:06:04;4.63;;;1.90;;
5199;SDS011;2619;47.868;11.892;2023-02-04T11:08:35;6.93;;;1.93;;
5199;SDS011;2619;47.868;11.892;2023-02-04T11:13:56;2.83;;;1.10;;
5199;SDS011;2619;47.868;11.892;2023-02-04T11:18:53;5.03;;;3.03;;
5199;SDS011;2619;47.868;11.892;2023-02-04T11:26:38;6.13;;;1.50;;
5199;SDS011;2619;47.868;11.892;2023-02-04T11:34:09;2.87;;;1.33;;
5199;SDS011;2619;47.868;11.892;2023-02-04T11:39:27;2.03;;;1.10;;
5199;SDS011;2619;47.868;11.892;2023-02-04T11:41:58;3.10;;;1.43;;
5199;SDS011;2619;47.868;11.892;2023-02-04T11:44:24;4.50;;;1.63;;
5199;SDS011;2619;47.868;11.892;2023-02-04T11:46:51;2.50;;;1.27;;
5199;SDS011;2619;47.868;11.892;2023-02-04T11:49:21;2.00;;;0.80;;
5199;SDS011;2619;47.868;11.892;2023-02-04T11:51:48;5.73;;;1.17;;
5199;SDS011;2619;47.868;11.892;2023-02-04T11:54:15;3.67;;;1.77;;
5199;SDS011;2619;47.868;11.892;2023-02-04T11:56:43;2.77;;;1.70;;
5199;SDS011;2619;47.868;11.892;2023-02-04T11:59:11;3.63;;;2.03;;
5199;SDS011;2619;47.868;11.892;2023-02-04T12:01:38;3.80;;;1.50;;
5199;SDS011;2619;47.868;11.892;2023-02-04T12:04:05;3.53;;;1.70;;
5199;SDS011;2619;47.868;11.892;2023-02-04T12:06:33;2.60;;;1.57;;
5199;SDS011;2619;47.868;11.892;2023-02-04T12:09:04;4.77;;;1.47;;
5199;SDS011;2619;47.868;11.892;2023-02-04T12:11:31;5.10;;;2.50;;
5199;SDS011;2619;47.868;11.892;2023-02-04T12:14:07;3.20;;;1.80;;
5199;SDS011;2619;47.868;11.892;2023-02-04T12:16:40;5.83;;;2.00;;
5199;SDS011;2619;47.868;11.892;2023-02-04T12:19:13;3.10;;;1.43;;
5199;SDS011;2619;47.868;11.892;2023-02-04T12:21:39;3.67;;;2.07;;
5199;SDS011;2619;47.868;11.892;2023-02-04T12:24:05;10.00;;;4.20;;
5199;SDS011;2619;47.868;11.892;2023-02-04T12:26:31;3.80;;;2.10;;
5199;SDS011;2619;47.868;11.892;2023-02-04T12:28:56;4.20;;;2.37;;
5199;SDS011;2619;47.868;11.892;2023-02-04T12:31:25;5.63;;;2.50;;
5199;SDS011;2619;47.868;11.892;2023-02-04T12:33:51;2.00;;;1.20;;
5199;SDS011;2619;47.868;11.892;2023-02-04T12:36:18;5.00;;;2.13;;
5199;SDS011;2619;47.868;11.892;2023-02-04T12:38:44;4.13;;;1.47;;
5199;SDS011;2619;47.868;11.892;2023-02-04T12:41:09;2.20;;;1.23;;
5199;SDS011;2619;47.868;11.892;2023-02-04T12:43:35;3.33;;;1.70;;
5199;SDS011;2619;47.868;11.892;2023-02-04T12:46:00;2.63;;;1.67;;
5199;SDS011;2619;47.868;11.892;2023-02-04T12:48:26;3.10;;;1.67;;
5199;SDS011;2619;47.868;11.892;2023-02-04T12:50:52;4.00;;;1.30;;
5199;SDS011;2619;47.868;11.892;2023-02-04T12:53:17;4.10;;;2.10;;
5199;SDS011;2619;47.868;11.892;2023-02-04T12:55:43;3.37;;;2.20;;
5199;SDS011;2619;47.868;11.892;2023-02-04T12:58:08;3.13;;;1.93;;
5199;SDS011;2619;47.868;11.892;2023-02-04T13:00:34;3.10;;;2.00;;
5199;SDS011;2619;47.868;11.892;2023-02-04T13:03:00;2.73;;;1.50;;
5199;SDS011;2619;47.868;11.892;2023-02-04T13:05:25;4.07;;;2.00;;
5199;SDS011;2619;47.868;11.892;2023-02-04T13:07:51;2.30;;;1.57;;
5199;SDS011;2619;47.868;11.892;2023-02-04T13:10:17;3.37;;;1.87;;
5199;SDS011;2619;47.868;11.892;2023-02-04T13:12:44;3.97;;;1.90;;
5199;SDS011;2619;47.868;11.892;2023-02-04T13:15:10;4.50;;;2.03;;
5199;SDS011;2619;47.868;11.892;2023-02-04T13:17:36;3.40;;;1.80;;
5199;SDS011;2619;47.868;11.892;2023-02-04T13:20:01;4.37;;;2.30;;
5199;SDS011;2619;47.868;11.892;2023-02-04T13:22:27;2.63;;;1.80;;
5199;SDS011;2619;47.868;11.892;2023-02-04T13:24:53;4.17;;;2.00;;
5199;SDS011;2619;47.868;11.892;2023-02-04T13:27:18;6.33;;;2.20;;
5199;SDS011;2619;47.868;11.892;2023-02-04T13:29:44;4.80;;;2.70;;
5199;SDS011;2619;47.868;11.892;2023-02-04T13:32:10;5.33;;;2.20;;
5199;SDS011;2619;47.868;11.892;2023-02-04T13:34:35;5.23;;;2.20;;
5199;SDS011;2619;47.868;11.892;2023-02-04T13:37:01;4.80;;;2.50;;
5199;SDS011;2619;47.868;11.892;2023-02-04T13:39:27;3.70;;;1.93;;
5199;SDS011;2619;47.868;11.892;2023-02-04T13:41:52;4.80;;;2.30;;
5199;SDS011;2619;47.868;11.892;2023-02-04T13:44:18;4.60;;;2.10;;
5199;SDS011;2619;47.868;11.892;2023-02-04T13:46:44;2.80;;;2.03;;
5199;SDS011;2619;47.868;11.892;2023-02-04T13:49:09;4.23;;;2.13;;
5199;SDS011;2619;47.868;11.892;2023-02-04T13:51:35;4.90;;;2.20;;
5199;SDS011;2619;47.868;11.892;2023-02-04T13:54:00;3.67;;;2.10;;
5199;SDS011;2619;47.868;11.892;2023-02-04T13:56:26;4.77;;;2.50;;
5199;SDS011;2619;47.868;11.892;2023-02-04T13:58:52;3.80;;;2.10;;
5199;SDS011;2619;47.868;11.892;2023-02-04T14:01:17;3.87;;;2.20;;
5199;SDS011;2619;47.868;11.892;2023-02-04T14:03:43;3.60;;;2.20;;
5199;SDS011;2619;47.868;11.892;2023-02-04T14:06:09;2.93;;;1.97;;
5199;SDS011;2619;47.868;11.892;2023-02-04T14:08:35;5.27;;;1.90;;
5199;SDS011;2619;47.868;11.892;2023-02-04T14:11:01;3.80;;;2.07;;
5199;SDS011;2619;47.868;11.892;2023-02-04T14:13:26;4.83;;;2.50;;
5199;SDS011;2619;47.868;11.892;2023-02-04T14:15:52;6.10;;;3.63;;
5199;SDS011;2619;47.868;11.892;2023-02-04T14:18:18;4.93;;;3.23;;
5199;SDS011;2619;47.868;11.892;2023-02-04T14:20:43;3.40;;;2.10;;
5199;SDS011;2619;47.868;11.892;2023-02-04T14:23:09;4.73;;;3.10;;
5199;SDS011;2619;47.868;11.892;2023-02-04T14:25:36;4.20;;;2.67;;
5199;SDS011;2619;47.868;11.892;2023-02-04T14:28:02;4.73;;;2.70;;
5199;SDS011;2619;47.868;11.892;2023-02-04T14:30:28;5.40;;;2.67;;
5199;SDS011;2619;47.868;11.892;2023-02-04T14:32:55;3.60;;;2.47;;
5199;SDS011;2619;47.868;11.892;2023-02-04T14:35:21;5.20;;;2.67;;
5199;SDS011;2619;47.868;11.892;2023-02-04T14:37:47;6.93;;;2.67;;
5199;SDS011;2619;47.868;11.892;2023-02-04T14:40:13;3.93;;;2.67;;
5199;SDS011;2619;47.868;11.892;2023-02-04T14:42:41;5.70;;;2.63;;
5199;SDS011;2619;47.868;11.892;2023-02-04T14:45:08;5.57;;;2.70;;
5199;SDS011;2619;47.868;11.892;2023-02-04T14:47:35;4.40;;;3.10;;
5199;SDS011;2619;47.868;11.892;2023-02-04T14:50:02;9.70;;;6.60;;
5199;SDS011;2619;47.868;11.892;2023-02-04T14:52:28;9.57;;;5.13;;
5199;SDS011;2619;47.868;11.892;2023-02-04T14:54:54;4.90;;;2.17;;
5199;SDS011;2619;47.868;11.892;2023-02-04T14:57:20;4.40;;;2.60;;
5199;SDS011;2619;47.868;11.892;2023-02-04T14:59:45;3.43;;;2.13;;
5199;SDS011;2619;47.868;11.892;2023-02-04T15:02:11;2.80;;;1.53;;
5199;SDS011;2619;47.868;11.892;2023-02-04T15:04:40;2.37;;;1.47;;
5199;SDS011;2619;47.868;11.892;2023-02-04T15:07:06;4.93;;;2.57;;
5199;SDS011;2619;47.868;11.892;2023-02-04T15:09:31;9.53;;;4.00;;
5199;SDS011;2619;47.868;11.892;2023-02-04T15:11:57;6.07;;;2.20;;
5199;SDS011;2619;47.868;11.892;2023-02-04T15:14:23;4.30;;;2.47;;
5199;SDS011;2619;47.868;11.892;2023-02-04T15:16:48;5.70;;;2.67;;
5199;SDS011;2619;47.868;11.892;2023-02-04T15:19:14;4.77;;;2.20;;
5199;SDS011;2619;47.868;11.892;2023-02-04T15:21:40;4.03;;;2.60;;